createdAt,value
2018-06-23T00:00:56.306Z,61.18
2018-06-23T00:03:26.951Z,61.07
2018-06-23T00:05:57.292Z,61.06
2018-06-23T00:08:27.848Z,61.40
2018-06-23T00:10:58.566Z,60.93
2018-06-23T00:13:29.263Z,61.18
2018-06-23T00:15:59.962Z,60.91
2018-06-23T00:18:30.635Z,61.13
2018-06-23T00:21:01.385Z,61.18
2018-06-23T00:23:31.999Z,61.30
2018-06-23T00:26:07.954Z,61.42
2018-06-23T00:28:38.580Z,61.50
2018-06-23T00:31:09.299Z,61.46
2018-06-23T00:33:39.966Z,61.54
2018-06-23T00:36:10.664Z,61.51
2018-06-23T00:38:41.302Z,61.64
2018-06-23T00:41:12.057Z,61.82
2018-06-23T00:43:42.362Z,61.73
2018-06-23T00:46:12.939Z,61.99
2018-06-23T00:48:43.590Z,61.93
2018-06-23T00:51:14.611Z,62.70
2018-06-23T00:53:45.849Z,62.95
2018-06-23T00:56:16.531Z,62.92
2018-06-23T00:59:03.883Z,63.39
2018-06-23T01:01:34.556Z,63.58
2018-06-23T01:04:05.786Z,63.40
2018-06-23T01:06:36.433Z,63.09
2018-06-23T01:09:09.947Z,63.05
2018-06-23T01:11:40.623Z,63.11
2018-06-23T01:14:11.407Z,63.02
2018-06-23T01:16:56.968Z,63.31
2018-06-23T01:19:27.659Z,63.30
2018-06-23T01:21:58.652Z,63.12
2018-06-23T01:24:29.290Z,62.86
2018-06-23T01:26:59.982Z,63.34
2018-06-23T01:29:30.643Z,63.32
2018-06-23T01:32:01.325Z,63.17
2018-06-23T01:34:32.043Z,63.47
2018-06-23T01:37:02.692Z,63.76
2018-06-23T01:39:33.347Z,63.73
2018-06-23T01:42:04.010Z,63.37
2018-06-23T01:44:34.654Z,63.65
2018-06-23T01:47:05.390Z,63.72
2018-06-23T01:49:36.054Z,63.45
2018-06-23T01:52:06.882Z,63.34
2018-06-23T01:54:37.532Z,63.87
2018-06-23T01:57:08.287Z,63.72
2018-06-23T01:59:38.932Z,63.83
2018-06-23T02:02:09.623Z,63.20
2018-06-23T02:04:40.264Z,63.03
2018-06-23T02:07:10.948Z,63.10
2018-06-23T02:09:41.609Z,62.76
2018-06-23T02:12:12.289Z,62.90
2018-06-23T02:14:48.164Z,62.92
2018-06-23T02:17:24.172Z,62.79
2018-06-23T02:19:59.893Z,63.02
2018-06-23T02:22:35.771Z,62.68
2018-06-23T02:25:11.780Z,62.49
2018-06-23T02:27:47.530Z,62.91
2018-06-23T02:30:23.385Z,62.77
2018-06-23T02:32:54.723Z,62.50
2018-06-23T02:35:25.555Z,62.56
2018-06-23T02:37:56.173Z,62.45
2018-06-23T02:40:26.966Z,62.99
2018-06-23T02:42:57.650Z,62.94
2018-06-23T02:45:28.291Z,63.15
2018-06-23T02:47:58.972Z,63.11
2018-06-23T02:50:29.669Z,62.69
2018-06-23T02:53:00.280Z,63.09
2018-06-23T02:55:31.009Z,63.24
2018-06-23T02:58:01.662Z,63.15
2018-06-23T03:00:32.345Z,63.39
2018-06-23T03:03:03.032Z,63.39
2018-06-23T03:05:33.704Z,63.02
2018-06-23T03:08:04.394Z,63.01
2018-06-23T03:10:35.068Z,62.81
2018-06-23T03:13:06.283Z,63.04
2018-06-23T03:15:36.918Z,62.93
2018-06-23T03:18:07.656Z,62.93
2018-06-23T03:20:38.374Z,63.07
2018-06-23T03:23:09.020Z,63.40
2018-06-23T03:25:39.728Z,63.10
2018-06-23T03:28:10.446Z,63.52
2018-06-23T03:30:41.094Z,63.98
2018-06-23T03:33:11.775Z,63.85
2018-06-23T03:35:42.471Z,63.82
2018-06-23T03:38:13.127Z,63.90
2018-06-23T03:40:43.773Z,64.13
2018-06-23T03:43:14.479Z,64.27
2018-06-23T03:45:48.046Z,64.25
2018-06-23T03:48:18.725Z,64.63
2018-06-23T03:50:49.391Z,64.76
2018-06-23T03:53:20.041Z,64.79
2018-06-23T03:55:50.681Z,65.12
2018-06-23T03:58:21.353Z,65.31
2018-06-23T04:00:58.235Z,65.37
2018-06-23T04:03:29.018Z,65.50
2018-06-23T04:05:59.650Z,65.60
2018-06-23T04:08:30.337Z,65.59
2018-06-23T04:11:00.997Z,65.48
2018-06-23T04:13:32.024Z,65.77
2018-06-23T04:16:02.681Z,65.69
2018-06-23T04:18:33.341Z,65.38
2018-06-23T04:21:04.056Z,65.73
2018-06-23T04:23:34.709Z,65.74
2018-06-23T04:26:05.713Z,65.82
2018-06-23T04:28:36.401Z,65.87
2018-06-23T04:31:07.205Z,65.34
2018-06-23T04:33:37.841Z,65.48
2018-06-23T04:36:08.555Z,65.49
2018-06-23T04:38:39.197Z,65.27
2018-06-23T04:41:09.982Z,65.27
2018-06-23T04:43:40.686Z,65.32
2018-06-23T04:46:11.557Z,65.28
2018-06-23T04:48:42.335Z,65.18
2018-06-23T04:51:12.979Z,64.85
2018-06-23T04:53:49.453Z,65.22
2018-06-23T04:56:19.985Z,65.01
2018-06-23T04:58:50.656Z,65.19
2018-06-23T05:01:21.309Z,65.09
2018-06-23T05:03:52.175Z,64.93
2018-06-23T05:06:22.823Z,64.44
2018-06-23T05:08:53.654Z,64.88
2018-06-23T05:11:24.405Z,64.39
2018-06-23T05:13:55.071Z,64.46
2018-06-23T05:16:25.746Z,64.23
2018-06-23T05:18:56.391Z,64.08
2018-06-23T05:21:27.276Z,64.07
2018-06-23T05:23:58.319Z,64.04
2018-06-23T05:26:28.944Z,64.45
2018-06-23T05:28:59.681Z,64.04
2018-06-23T05:31:30.361Z,63.85
2018-06-23T05:34:01.004Z,63.78
2018-06-23T05:36:31.801Z,64.04
2018-06-23T05:39:02.581Z,64.41
2018-06-23T05:41:33.260Z,64.11
2018-06-23T05:44:03.919Z,64.23
2018-06-23T05:46:35.025Z,64.14
2018-06-23T05:49:05.803Z,64.22
2018-06-23T05:51:36.471Z,64.25
2018-06-23T05:57:40.949Z,64.54
2018-06-23T06:00:12.587Z,65.17
2018-06-23T06:02:43.263Z,65.41
2018-06-23T06:05:13.932Z,65.43
2018-06-23T06:07:44.619Z,66.24
2018-06-23T06:10:15.292Z,66.88
2018-06-23T06:12:45.977Z,67.50
2018-06-23T06:15:16.664Z,68.55
2018-06-23T06:17:47.368Z,69.01
2018-06-23T06:20:18.056Z,69.47
2018-06-23T06:22:48.766Z,69.74
2018-06-23T06:25:21.205Z,69.66
2018-06-23T06:27:51.886Z,69.62
2018-06-23T06:30:22.519Z,70.45
2018-06-23T06:32:53.218Z,70.34
2018-06-23T06:35:23.873Z,71.13
2018-06-23T06:37:54.578Z,70.96
2018-06-23T06:40:25.233Z,71.15
2018-06-23T06:42:55.953Z,71.25
2018-06-23T06:45:26.669Z,70.98
2018-06-23T06:47:57.363Z,70.67
2018-06-23T06:50:28.064Z,70.36
2018-06-23T06:52:58.712Z,70.03
2018-06-23T06:55:29.465Z,69.22
2018-06-23T06:58:00.189Z,68.28
2018-06-23T07:00:30.874Z,67.87
2018-06-23T07:03:01.547Z,66.43
2018-06-23T07:05:32.260Z,65.37
2018-06-23T07:08:02.914Z,64.31
2018-06-23T07:10:33.560Z,64.10
2018-06-23T07:13:04.268Z,63.52
2018-06-23T07:15:35.000Z,63.60
2018-06-23T07:18:05.599Z,63.43
2018-06-23T07:20:36.276Z,63.70
2018-06-23T07:23:06.974Z,63.26
2018-06-23T07:25:37.801Z,63.08
2018-06-23T07:28:08.474Z,62.97
2018-06-23T07:30:39.216Z,61.98
2018-06-23T07:33:09.876Z,61.28
2018-06-23T07:35:40.749Z,60.24
2018-06-23T07:38:11.452Z,60.83
2018-06-23T07:40:42.173Z,59.61
2018-06-23T07:43:12.786Z,58.14
2018-06-23T07:45:43.481Z,57.82
2018-06-23T07:48:14.474Z,56.85
2018-06-23T07:50:45.411Z,56.73
2018-06-23T07:53:16.128Z,56.07
2018-06-23T07:55:46.796Z,55.24
2018-06-23T07:58:17.465Z,54.38
2018-06-23T08:00:48.196Z,53.93
2018-06-23T08:03:18.850Z,53.51
2018-06-23T08:05:49.552Z,52.98
2018-06-23T08:08:20.243Z,51.65
2018-06-23T08:10:50.886Z,52.79
2018-06-23T08:13:21.631Z,53.97
2018-06-23T08:15:52.307Z,54.37
2018-06-23T08:18:23.046Z,54.72
2018-06-23T08:20:53.745Z,54.67
2018-06-23T08:23:24.430Z,54.83
2018-06-23T08:25:55.099Z,54.70
2018-06-23T08:28:25.749Z,54.64
2018-06-23T08:30:56.404Z,54.59
2018-06-23T08:33:27.046Z,54.07
2018-06-23T08:35:57.734Z,53.88
2018-06-23T08:38:28.371Z,52.53
2018-06-23T08:40:59.085Z,52.34
2018-06-23T08:43:29.755Z,51.28
2018-06-23T08:46:00.405Z,49.52
2018-06-23T08:48:31.061Z,49.29
2018-06-23T08:51:01.729Z,48.29
2018-06-23T08:53:32.344Z,48.48
2018-06-23T08:56:03.034Z,48.18
2018-06-23T08:58:33.672Z,46.95
2018-06-23T09:01:04.415Z,47.59
2018-06-23T09:03:35.077Z,47.44
2018-06-23T09:06:05.798Z,47.69
2018-06-23T09:08:36.616Z,48.42
2018-06-23T09:11:07.497Z,48.52
2018-06-23T09:13:38.150Z,48.19
2018-06-23T09:16:08.883Z,48.37
2018-06-23T09:18:39.526Z,48.90
2018-06-23T09:21:10.206Z,48.68
2018-06-23T09:23:40.832Z,47.86
2018-06-23T09:26:11.524Z,47.29
2018-06-23T09:28:42.209Z,44.46
2018-06-23T09:31:12.896Z,44.00
2018-06-23T09:33:43.603Z,43.02
2018-06-23T09:36:14.332Z,43.29
2018-06-23T09:38:45.106Z,42.20
2018-06-23T09:41:15.845Z,42.21
2018-06-23T09:43:46.571Z,41.46
2018-06-23T09:46:17.297Z,41.79
2018-06-23T09:48:47.979Z,41.36
2018-06-23T09:51:18.631Z,41.97
2018-06-23T09:53:49.340Z,42.19
2018-06-23T09:56:20.040Z,43.77
2018-06-23T09:58:50.859Z,42.10
2018-06-23T10:01:21.575Z,41.46
2018-06-23T10:03:52.238Z,41.07
2018-06-23T10:06:22.964Z,42.83
2018-06-23T10:08:53.676Z,43.87
2018-06-23T10:11:24.327Z,45.58
2018-06-23T10:13:54.997Z,47.31
2018-06-23T10:16:25.692Z,47.71
2018-06-23T10:18:56.610Z,48.25
2018-06-23T10:21:27.305Z,49.43
2018-06-23T10:23:57.927Z,49.59
2018-06-23T10:26:28.595Z,49.66
2018-06-23T10:28:59.239Z,48.15
2018-06-23T10:31:30.939Z,46.35
2018-06-23T10:34:01.766Z,44.75
2018-06-23T10:36:32.397Z,44.45
2018-06-23T10:39:03.135Z,42.69
2018-06-23T10:41:33.771Z,41.82
2018-06-23T10:44:04.744Z,41.49
2018-06-23T10:46:35.484Z,41.26
2018-06-23T10:49:06.847Z,41.58
2018-06-23T10:51:37.578Z,41.26
2018-06-23T10:54:08.272Z,41.60
2018-06-23T10:56:38.977Z,40.95
2018-06-23T10:59:09.720Z,41.58
2018-06-23T11:01:40.387Z,41.84
2018-06-23T11:04:11.111Z,41.45
2018-06-23T11:06:41.844Z,41.41
2018-06-23T11:09:12.503Z,43.06
2018-06-23T11:11:43.175Z,42.67
2018-06-23T11:14:13.831Z,43.62
2018-06-23T11:16:44.533Z,43.54
2018-06-23T11:19:15.147Z,43.33
2018-06-23T11:21:45.867Z,43.15
2018-06-23T11:24:16.476Z,43.84
2018-06-23T11:26:47.159Z,44.01
2018-06-23T11:29:17.972Z,43.98
2018-06-23T11:31:49.423Z,43.80
2018-06-23T11:34:20.056Z,43.21
2018-06-23T11:36:50.654Z,43.21
2018-06-23T11:39:21.257Z,43.79
2018-06-23T11:41:52.141Z,42.54
2018-06-23T11:44:22.809Z,43.16
2018-06-23T11:46:53.663Z,42.75
2018-06-23T11:49:24.313Z,42.74
2018-06-23T11:51:55.016Z,43.51
2018-06-23T11:54:26.208Z,43.58
2018-06-23T11:56:56.896Z,42.25
2018-06-23T11:59:27.558Z,42.60
2018-06-23T12:01:58.238Z,40.61
2018-06-23T12:04:28.992Z,41.05
2018-06-23T12:06:59.657Z,41.10
2018-06-23T12:09:30.403Z,40.01
2018-06-23T12:12:01.112Z,39.04
2018-06-23T12:14:31.744Z,38.37
2018-06-23T12:17:02.480Z,37.69
2018-06-23T12:19:33.180Z,38.57
2018-06-23T12:22:03.899Z,38.88
2018-06-23T12:24:34.567Z,39.63
2018-06-23T12:27:05.300Z,39.38
2018-06-23T12:29:36.013Z,38.95
2018-06-23T12:32:06.720Z,39.05
2018-06-23T12:34:37.536Z,39.39
2018-06-23T12:37:08.260Z,38.64
2018-06-23T12:39:38.940Z,38.76
2018-06-23T12:42:09.627Z,38.77
2018-06-23T12:44:40.304Z,39.27
2018-06-23T12:47:14.189Z,38.23
2018-06-23T12:49:44.863Z,37.50
2018-06-23T12:52:15.765Z,37.20
2018-06-23T12:54:46.514Z,37.79
2018-06-23T12:57:17.211Z,38.73
2018-06-23T12:59:47.897Z,38.27
2018-06-23T13:02:18.606Z,38.78
2018-06-23T13:04:49.334Z,39.85
2018-06-23T13:07:19.940Z,40.38
2018-06-23T13:09:50.631Z,40.84
2018-06-23T13:12:21.352Z,39.11
2018-06-23T13:14:52.146Z,38.53
2018-06-23T13:17:23.023Z,38.07
2018-06-23T13:19:54.913Z,38.76
2018-06-23T13:22:25.591Z,38.10
2018-06-23T13:24:56.505Z,38.53
2018-06-23T13:27:27.147Z,39.52
2018-06-23T13:29:58.123Z,40.29
2018-06-23T13:32:28.855Z,40.63
2018-06-23T13:34:59.490Z,41.04
2018-06-23T13:37:30.179Z,41.90
2018-06-23T13:40:00.810Z,43.19
2018-06-23T13:42:31.460Z,43.70
2018-06-23T13:45:02.197Z,43.54
2018-06-23T13:47:32.876Z,43.90
2018-06-23T13:50:03.738Z,44.44
2018-06-23T13:52:35.272Z,44.00
2018-06-23T13:55:06.306Z,43.75
2018-06-23T13:57:37.041Z,43.87
2018-06-23T14:00:09.591Z,42.50
2018-06-23T14:02:40.575Z,42.66
2018-06-23T14:05:11.410Z,41.13
2018-06-23T14:07:42.110Z,40.76
2018-06-23T14:10:12.767Z,40.56
2018-06-23T14:12:43.435Z,39.44
2018-06-23T14:15:14.102Z,40.94
2018-06-23T14:17:44.768Z,40.15
2018-06-23T14:20:15.478Z,40.40
2018-06-23T14:22:46.172Z,40.25
2018-06-23T14:25:16.872Z,40.15
2018-06-23T14:27:47.566Z,39.61
2018-06-23T14:30:18.276Z,40.85
2018-06-23T14:32:48.973Z,41.00
2018-06-23T14:35:19.667Z,40.72
2018-06-23T14:37:50.376Z,39.71
2018-06-23T14:40:20.755Z,39.65
2018-06-23T14:42:51.348Z,39.50
2018-06-23T14:45:23.106Z,38.65
2018-06-23T14:47:53.798Z,38.79
2018-06-23T14:50:24.442Z,39.38
2018-06-23T14:52:55.160Z,38.17
2018-06-23T14:55:25.929Z,37.44
2018-06-23T14:57:56.575Z,37.38
2018-06-23T15:00:27.280Z,37.97
2018-06-23T15:02:58.162Z,37.91
2018-06-23T15:05:28.876Z,38.27
2018-06-23T15:08:15.131Z,39.02
2018-06-23T15:11:02.668Z,38.94
2018-06-23T15:13:33.353Z,39.54
2018-06-23T15:16:04.028Z,39.28
2018-06-23T15:18:34.741Z,40.36
2018-06-23T15:21:05.449Z,40.41
2018-06-23T15:23:36.135Z,40.68
2018-06-23T15:26:06.856Z,39.89
2018-06-23T15:28:37.488Z,39.20
2018-06-23T15:31:08.277Z,39.54
2018-06-23T15:33:39.027Z,39.14
2018-06-23T15:36:09.771Z,39.91
2018-06-23T15:38:40.447Z,40.06
2018-06-23T15:44:18.824Z,40.85
2018-06-23T15:46:49.561Z,39.89
2018-06-23T15:49:20.251Z,39.80
2018-06-23T15:51:50.940Z,39.88
2018-06-23T15:54:21.615Z,41.16
2018-06-23T15:56:52.266Z,41.27
2018-06-23T15:59:22.958Z,40.50
2018-06-23T16:01:53.649Z,41.43
2018-06-23T16:04:24.308Z,42.16
2018-06-23T16:06:54.951Z,41.73
2018-06-23T16:09:25.895Z,42.46
2018-06-23T16:11:56.561Z,41.98
2018-06-23T16:14:27.264Z,41.08
2018-06-23T16:16:57.991Z,40.25
2018-06-23T16:19:28.632Z,39.34
2018-06-23T16:21:59.325Z,39.43
2018-06-23T16:24:30.048Z,39.37
2018-06-23T16:27:00.760Z,39.70
2018-06-23T16:29:31.440Z,40.44
2018-06-23T16:32:02.165Z,41.21
2018-06-23T16:34:32.951Z,40.62
2018-06-23T16:37:03.688Z,40.45
2018-06-23T16:39:34.381Z,40.62
2018-06-23T16:42:05.074Z,40.91
2018-06-23T16:44:35.778Z,39.75
2018-06-23T16:47:06.906Z,40.09
2018-06-23T16:49:37.635Z,39.74
2018-06-23T16:52:08.352Z,40.01
2018-06-23T16:54:39.068Z,40.20
2018-06-23T16:57:09.873Z,40.25
2018-06-23T16:59:40.604Z,40.49
2018-06-23T17:02:11.388Z,40.62
2018-06-23T17:04:42.176Z,41.17
2018-06-23T17:07:12.882Z,41.58
2018-06-23T17:09:43.673Z,42.01
2018-06-23T17:12:14.418Z,42.14
2018-06-23T17:14:45.105Z,42.35
2018-06-23T17:17:15.791Z,41.99
2018-06-23T17:19:46.498Z,42.52
2018-06-23T17:22:17.202Z,42.42
2018-06-23T17:24:47.856Z,43.07
2018-06-23T17:27:18.607Z,43.54
2018-06-23T17:29:49.275Z,43.66
2018-06-23T17:32:19.970Z,43.89
2018-06-23T17:34:50.598Z,44.49
2018-06-23T17:37:21.619Z,43.88
2018-06-23T17:39:52.324Z,43.67
2018-06-23T17:42:23.044Z,44.02
2018-06-23T17:44:53.873Z,44.38
2018-06-23T17:47:24.577Z,44.64
2018-06-23T17:49:55.313Z,44.97
2018-06-23T17:52:25.970Z,44.56
2018-06-23T17:54:56.676Z,44.02
2018-06-23T17:57:27.485Z,43.61
2018-06-23T17:59:58.122Z,43.41
2018-06-23T18:02:28.920Z,43.26
2018-06-23T18:04:59.647Z,42.88
2018-06-23T18:07:30.413Z,43.27
2018-06-23T18:10:01.073Z,42.59
2018-06-23T18:12:31.794Z,42.56
2018-06-23T18:15:02.460Z,41.87
2018-06-23T18:17:33.167Z,42.23
2018-06-23T18:20:03.959Z,42.54
2018-06-23T18:22:34.803Z,42.18
2018-06-23T18:25:05.837Z,43.07
2018-06-23T18:27:36.755Z,42.64
2018-06-23T18:30:07.575Z,42.08
2018-06-23T18:32:38.307Z,42.04
2018-06-23T18:35:09.103Z,41.94
2018-06-23T18:37:39.761Z,41.89
2018-06-23T18:40:10.471Z,42.13
2018-06-23T18:42:41.146Z,42.59
2018-06-23T18:45:11.860Z,42.74
2018-06-23T18:47:42.519Z,43.12
2018-06-23T18:50:13.199Z,42.89
2018-06-23T18:52:43.882Z,43.28
2018-06-23T18:55:14.588Z,43.64
2018-06-23T18:57:45.248Z,44.12
2018-06-23T19:00:15.908Z,44.67
2018-06-23T19:02:46.573Z,44.76
2018-06-23T19:05:17.264Z,44.56
2018-06-23T19:07:47.897Z,45.17
2018-06-23T19:10:18.572Z,45.44
2018-06-23T19:12:49.276Z,45.63
2018-06-23T19:15:19.965Z,45.77
2018-06-23T19:17:50.801Z,46.35
2018-06-23T19:20:21.477Z,46.66
2018-06-23T19:22:52.240Z,46.78
2018-06-23T19:25:22.912Z,47.62
2018-06-23T19:27:53.592Z,47.95
2018-06-23T19:30:24.243Z,48.06
2018-06-23T19:32:54.935Z,47.66
2018-06-23T19:35:25.554Z,47.94
2018-06-23T19:37:56.221Z,48.33
2018-06-23T19:40:26.939Z,49.05
2018-06-23T19:42:57.585Z,48.94
2018-06-23T19:45:28.238Z,49.14
2018-06-23T19:47:58.995Z,49.16
2018-06-23T19:50:29.654Z,49.65
2018-06-23T19:53:00.337Z,49.23
2018-06-23T19:55:30.989Z,49.82
2018-06-23T19:58:01.747Z,50.06
2018-06-23T20:00:32.400Z,50.09
2018-06-23T20:03:03.020Z,50.68
2018-06-23T20:05:33.735Z,50.61
2018-06-23T20:08:04.402Z,50.77
2018-06-23T20:10:35.068Z,51.02
2018-06-23T20:13:05.756Z,51.59
2018-06-23T20:15:36.412Z,51.77
2018-06-23T20:18:07.115Z,52.29
2018-06-23T20:20:37.727Z,52.59
2018-06-23T20:23:09.200Z,53.00
2018-06-23T20:25:39.644Z,53.70
2018-06-23T20:28:10.329Z,53.79
2018-06-23T20:30:41.072Z,53.99
2018-06-23T20:33:11.780Z,54.50
2018-06-23T20:35:42.667Z,54.64
2018-06-23T20:38:13.347Z,55.33
2018-06-23T20:40:44.050Z,55.42
2018-06-23T20:43:14.770Z,55.26
2018-06-23T20:45:45.460Z,55.78
2018-06-23T20:48:16.098Z,56.40
2018-06-23T20:50:46.736Z,56.55
2018-06-23T20:53:17.660Z,56.65
2018-06-23T20:55:48.374Z,56.64
2018-06-23T20:58:19.058Z,56.95
2018-06-23T21:00:49.763Z,57.02
2018-06-23T21:03:20.467Z,57.74
2018-06-23T21:05:51.193Z,57.45
2018-06-23T21:08:21.939Z,57.21
2018-06-23T21:10:52.643Z,57.36
2018-06-23T21:13:23.311Z,57.62
2018-06-23T21:15:54.056Z,57.41
2018-06-23T21:18:24.731Z,57.94
2018-06-23T21:20:55.400Z,57.99
2018-06-23T21:23:26.057Z,58.21
2018-06-23T21:25:56.719Z,58.46
2018-06-23T21:28:27.368Z,58.55
2018-06-23T21:30:58.141Z,58.62
2018-06-23T21:33:28.770Z,58.87
2018-06-23T21:35:59.432Z,58.99
2018-06-23T21:38:30.116Z,58.98
2018-06-23T21:41:00.755Z,59.52
2018-06-23T21:43:31.458Z,59.85
2018-06-23T21:46:02.167Z,60.02
2018-06-23T21:48:32.898Z,60.12
2018-06-23T21:51:03.698Z,60.02
2018-06-23T21:53:35.479Z,60.40
2018-06-23T21:56:06.190Z,60.21
2018-06-23T21:58:37.027Z,60.15
2018-06-23T22:01:07.796Z,60.62
2018-06-23T22:03:38.473Z,60.66
2018-06-23T22:06:09.159Z,60.47
2018-06-23T22:08:39.870Z,60.56
2018-06-23T22:11:10.543Z,60.67
2018-06-23T22:13:40.904Z,60.56
2018-06-23T22:16:11.486Z,59.97
2018-06-23T22:18:42.148Z,59.80
2018-06-23T22:21:12.775Z,59.98
2018-06-23T22:23:43.442Z,60.08
2018-06-23T22:26:14.128Z,59.76
2018-06-23T22:28:44.808Z,59.57
2018-06-23T22:31:15.523Z,59.66
2018-06-23T22:33:46.159Z,59.93
2018-06-23T22:36:16.853Z,59.99
2018-06-23T22:38:47.527Z,60.48
2018-06-23T22:44:24.186Z,60.95
2018-06-23T22:46:54.919Z,60.83
2018-06-23T22:49:25.573Z,61.17
2018-06-23T22:51:56.201Z,61.15
2018-06-23T22:54:26.899Z,61.04
2018-06-23T22:56:57.559Z,61.10
2018-06-23T22:59:28.255Z,61.25
2018-06-23T23:01:58.933Z,61.10
2018-06-23T23:04:29.628Z,61.02
2018-06-23T23:07:00.279Z,60.91
2018-06-23T23:09:30.675Z,61.25
2018-06-23T23:12:01.365Z,61.58
2018-06-23T23:14:32.059Z,61.30
2018-06-23T23:17:02.763Z,61.53
2018-06-23T23:19:33.475Z,61.81
2018-06-23T23:22:04.222Z,61.96
2018-06-23T23:24:34.893Z,62.31
2018-06-23T23:27:05.593Z,62.66
2018-06-23T23:29:36.287Z,63.00
2018-06-23T23:32:07.203Z,62.80
2018-06-23T23:34:37.898Z,63.16
2018-06-23T23:37:08.563Z,63.08
2018-06-23T23:39:39.220Z,63.14
2018-06-23T23:42:10.100Z,63.30
2018-06-23T23:44:40.835Z,63.83
2018-06-23T23:47:11.518Z,63.91
2018-06-23T23:49:42.204Z,64.22
2018-06-23T23:52:12.844Z,64.47
2018-06-23T23:54:43.564Z,64.16
2018-06-23T23:57:14.470Z,64.79
2018-06-23T23:59:45.149Z,64.38
